KHNB

Huntingburg Airport

Huntingburg, Indiana, USA
METAR KHNB 212356Z AUTO 02008KT 10SM -RA OVC009 06/05 A3046 RMK AO2 CIG 007V012 SLP319 P0002 60026 T00610050 10067 20056 51018
Observed Flight Rules
Feb-21 @ 23:56 UTC (4 hours ago) Instrument Flight Rules
Wind Visibility Clouds Conditions
20° at 8 knots 10 miles
  • Overcast at 900' AGL
  • Light Rain
Temperatures Readings Precipitation
Current 6°C / 43°F
Dewpoint 5°C / 41°F
Humidity 93%
Altimeter 30.46" Hg
Pressure 1031.9 hPa
Elevation 161
Current Rain 0.02
METAR KHNB 212356Z AUTO 02008KT 10SM -RA OVC009 06/05 A3046 RMK AO2 CIG 007V012 SLP319 P0002 60026 T00610050 10067 20056 51018
Observed Flight Rules
Feb-21 @ 23:56 UTC
(4 hours ago)
IFR
Wind Visibility
20° at 8 knots 10 miles
Clouds
  • Overcast at 900' AGL
Conditions
  • Light Rain
Temperature Dewpoint
6°C / 43°F 5°C / 41°F
Humidity Altimeter Pressure
93% 30.46" Hg 1031.9 hPa
Current Rain
0.02